Atlanta, GA

01:22 PM EDT am 27. Juni 2017 (GMT -0400)
Castleberry Hill | | Change Station

Höhe 1057 ft 33.75 °N, 84.40 °W | Updated 24 seconds ago

Heiter
Heiter
88.6 °F
gefühlte 87 °F
N
8.0
Wind Wechselnd Wind aus West-Südwest

Heute
Max. -- | schwach -- °F
--% Regenrisiko
Gestern
Max. -- | schwach -- °F
Precip. -- inch
Druck 30.07 inch
Sichtweite 10.0 Meilen
Wolken Heiter
Hitzeindex 87 °F
Taupunkt 56 °F
Feuchtigkeit 34%
Regen 0.00 inch
Schneehöhe Nicht verfügbar..
6:29 AM 8:52 PM
Erstes Viertel, 18% visible
METAR KFTY 271653Z 32010KT 10SM CLR 27/14 A3010 RMK AO2 SLP183 T02720144
Druck 30.07 inch
Sichtweite 10.0 Meilen
Wolken Heiter
Hitzeindex 87 °F
Taupunkt 56 °F
Feuchtigkeit 34%
Regen 0.00 inch
Schneehöhe Nicht verfügbar..
6:29 AM 8:52 PM
Erstes Viertel, 18% visible
METAR KFTY 271653Z 32010KT 10SM CLR 27/14 A3010 RMK AO2 SLP183 T02720144

Get Severe Weather Alerts

Thanks for signing up!

Be on the lookout for a verification email in your inbox.

You'll start receiving the daily forecast at 6 AM.

×

10-Day Weather Forecast

Almanac

Astronomie

Jun. 27, 2017 Aufgang Untergang
Genaue Zeit
Bürgerliche Dämmerung
Nautische Dämmerung
Astronomische Dämmerung
Mond
Länge des sichtbaren Lichts
Tageslänge
Tomorrow will be .
, % of the Moon is Illuminated

Heutige Rekorde

State Highs State Lows

Community

WunderPhotos

Category 6

Welcome to Category 6. This is the collective home for Weather Underground's featured writeups by Dr. Jeff Masters (right), Bob Henson (left), Chris Burt, and other regular contributors.

Nearby

Luftqualität

  Luftqualität LQ Index Schadstoff
Not available.

Schneehöhe

Station Depth Höhe

Erdbebenaktivität

Stadt Distance Mag. Time & Date
Minimum magnitude displayed is 2.5.

küstennahe Wassertemperaturen

Ort Temperatur

Stations

Wetterstationen in der Umgebung

Stationsstandort Temp. Windchill Taupunkt Feuchtigkeit Wind Precip. Höhe Aktualisiert Art
                   

Watches & Warnings

There are currently no watches in effect.